Terminal Aerodrome Forecast
Issued by NWS Cleveland, OH

Home | Current Version | Previous Version | Text Only | Print | Product List | Glossary On
Versions: 1 2 3 4 5 6 7 8 9 10 11 12 13 14 15 16 17
000
FTUS41 KCLE 250500
TAFMFD
TAF
KMFD 250524Z 2506/2606 14012KT P6SM SCT150 OVC200
     FM251100 16012KT P6SM VCSH SCT025 OVC035
      TEMPO 2514/2518 4SM -SHRA BR BKN012 OVC020
     FM252000 29014G22KT P6SM SCT008 OVC012
     FM260100 27008KT P6SM SCT025 BKN100=

USA.gov is the U.S. government's official web portal to all federal, state and local government web resources and services.